Time;durP1;ratioP1;P1;durP2;ratioP2;P2;SDS_P1;SDS_P2;PMS_P1;PMS_P2;Temp;Humidity;BMP_temperature;BMP_pressure;BME280_temperature;BME280_humidity;BME280_pressure;Samples;Min_cycle;Max_cycle;Signal;HPM_P1;HPM_P2
2023/09/09 00:00:51;;;;;;;10.38;1.52;;;;;;;13.91;51.63;100193.94;10456665;28;20037;-66
2023/09/09 00:05:52;;;;;;;10.77;1.83;;;;;;;13.83;52.02;100177.22;10456686;28;20049;-66
2023/09/09 00:10:53;;;;;;;4.50;1.50;;;;;;;13.62;52.72;100165.56;10456983;28;20037;-66
2023/09/09 00:15:54;;;;;;;13.27;1.80;;;;;;;13.52;53.55;100167.72;10456838;28;20041;-66
2023/09/09 00:20:55;;;;;;;22.17;3.10;;;;;;;13.03;54.42;100093.75;10456916;28;20045;-66
2023/09/09 00:25:56;;;;;;;13.48;2.05;;;;;;;13.42;54.12;100169.88;10456211;28;20485;-66
2023/09/09 00:30:56;;;;;;;9.02;1.60;;;;;;;13.29;54.60;100141.25;10456281;28;20037;-66
2023/09/09 00:36:02;;;;;;;18.05;4.97;;;;;;;13.19;56.64;100152.19;10455496;28;20033;-66
2023/09/09 00:41:10;;;;;;;8.02;2.47;;;;;;;12.97;57.26;100150.50;10454568;28;20098;-66
2023/09/09 00:46:12;;;;;;;13.82;2.53;;;;;;;12.73;56.47;100149.00;10455722;28;20045;-66
2023/09/09 00:51:13;;;;;;;11.50;2.20;;;;;;;12.70;56.59;100152.84;10454805;28;20130;-66
2023/09/09 00:56:13;;;;;;;15.02;2.67;;;;;;;12.52;57.32;100149.75;10454489;28;20060;-66
2023/09/09 01:01:14;;;;;;;21.13;2.75;;;;;;;12.35;58.06;100143.78;10454896;28;20037;-66
2023/09/09 01:06:15;;;;;;;24.10;6.65;;;;;;;12.46;58.55;100151.31;10454675;28;20049;-66
2023/09/09 01:11:16;;;;;;;18.33;6.47;;;;;;;12.29;59.13;100128.56;10454831;28;20106;-66
2023/09/09 01:16:16;;;;;;;15.05;4.88;;;;;;;12.66;59.15;100146.25;10452628;28;20041;-66
2023/09/09 01:21:19;;;;;;;23.73;5.72;;;;;;;12.63;59.83;100151.97;10453786;28;20135;-66
2023/09/09 01:26:19;;;;;;;20.63;8.15;;;;;;;12.18;59.94;100087.25;10454088;28;20088;-66
2023/09/09 01:31:20;;;;;;;29.60;10.68;;;;;;;12.54;59.54;100148.56;10453719;28;20076;-66
2023/09/09 01:36:21;;;;;;;15.27;5.22;;;;;;;12.50;59.44;100141.13;10454680;28;20140;-66
2023/09/09 01:41:22;;;;;;;25.13;3.22;;;;;;;12.31;60.52;100137.19;10453381;28;20128;-66
2023/09/09 01:46:22;;;;;;;14.23;2.22;;;;;;;12.50;60.75;100139.31;10454298;28;20071;-66
2023/09/09 01:51:23;;;;;;;88.72;9.25;;;;;;;12.56;60.96;100132.38;10461733;28;20067;-66
2023/09/09 01:56:24;;;;;;;77.82;9.88;;;;;;;12.44;62.14;100136.53;10461975;28;20039;-66
2023/09/09 02:01:25;;;;;;;31.40;4.75;;;;;;;12.01;62.22;100091.91;10462077;28;20110;-66
2023/09/09 02:06:27;;;;;;;74.45;13.48;;;;;;;12.07;62.40;100077.88;10460954;28;20052;-65
2023/09/09 02:11:28;;;;;;;63.97;18.45;;;;;;;12.25;62.67;100133.44;10460815;28;20450;-65
2023/09/09 02:16:29;;;;;;;108.97;17.25;;;;;;;12.14;63.48;100133.88;10461417;28;20044;-65
2023/09/09 02:21:30;;;;;;;120.57;20.65;;;;;;;11.74;63.42;100073.91;10460502;28;20045;-65
2023/09/09 02:26:30;;;;;;;55.42;16.27;;;;;;;11.98;63.90;100118.91;10461258;28;20068;-65
2023/09/09 02:31:31;;;;;;;84.85;14.00;;;;;;;11.79;64.00;100101.63;10460250;28;20048;-65
2023/09/09 02:36:32;;;;;;;108.78;12.00;;;;;;;11.53;64.50;100058.63;10461166;28;20476;-65
2023/09/09 02:41:33;;;;;;;129.63;10.88;;;;;;;11.82;64.82;100124.38;10460007;28;20033;-65
2023/09/09 02:46:33;;;;;;;86.43;6.18;;;;;;;11.49;65.33;100068.81;10460007;28;20068;-67
2023/09/09 02:51:34;;;;;;;62.90;7.78;;;;;;;11.78;65.88;100121.22;10458298;28;20076;-65
2023/09/09 02:56:35;;;;;;;76.60;10.10;;;;;;;11.83;66.15;100118.88;10459542;28;20040;-65
2023/09/09 03:01:35;;;;;;;216.27;13.93;;;;;;;11.81;66.24;100120.88;10458828;28;20511;-65
2023/09/09 03:06:36;;;;;;;177.02;11.43;;;;;;;11.84;66.13;100101.88;10458683;28;20056;-66
2023/09/09 03:11:37;;;;;;;347.20;21.55;;;;;;;11.75;66.39;100047.09;10458682;28;20049;-65
2023/09/09 03:16:38;;;;;;;37.30;3.58;;;;;;;12.17;66.11;100090.91;10458399;28;20040;-67
2023/09/09 03:21:39;;;;;;;99.60;9.02;;;;;;;12.15;65.89;100042.34;10458826;28;20045;-65
2023/09/09 03:26:39;;;;;;;294.63;17.27;;;;;;;12.89;65.87;100092.81;10458469;28;20057;-66
2023/09/09 03:31:40;;;;;;;305.70;17.40;;;;;;;13.31;64.94;100085.00;10458011;28;20052;-65
2023/09/09 03:36:42;;;;;;;82.50;6.63;;;;;;;13.84;63.49;100085.41;10458233;28;20040;-66
2023/09/09 03:41:43;;;;;;;55.67;5.55;;;;;;;14.67;61.39;100090.78;10457392;28;20191;-66
2023/09/09 03:46:43;;;;;;;31.70;4.32;;;;;;;15.58;59.19;100079.56;10458145;28;20127;-66
2023/09/09 03:51:44;;;;;;;186.15;12.75;;;;;;;16.49;56.88;100068.88;10457232;28;20037;-66
2023/09/09 03:56:45;;;;;;;28.05;3.67;;;;;;;17.23;54.36;100071.94;10457247;28;20044;-62
2023/09/09 04:01:46;;;;;;;31.63;4.18;;;;;;;17.89;52.75;100060.66;10453352;28;20037;-62
2023/09/09 04:06:46;;;;;;;19.77;4.10;;;;;;;18.40;49.61;100020.97;10455181;28;20040;-63
2023/09/09 04:11:47;;;;;;;16.23;2.95;;;;;;;18.92;47.47;100008.66;10452778;28;20439;-64
2023/09/09 04:16:48;;;;;;;18.27;2.70;;;;;;;19.52;46.19;100044.53;10452423;28;20049;-62
2023/09/09 04:21:51;;;;;;;12.95;3.00;;;;;;;20.07;44.44;100063.03;10456291;28;20523;-62
2023/09/09 04:26:52;;;;;;;25.00;4.95;;;;;;;20.56;43.93;100051.94;10456421;28;20534;-62
2023/09/09 04:31:53;;;;;;;12.73;2.40;;;;;;;20.83;42.57;100044.88;10455681;28;20090;-63
2023/09/09 04:36:54;;;;;;;15.90;2.30;;;;;;;20.74;40.86;100041.75;10455630;28;20041;-62
2023/09/09 04:41:55;;;;;;;11.35;2.35;;;;;;;20.73;39.74;100028.47;10455142;28;20037;-62
2023/09/09 04:46:56;;;;;;;13.55;2.60;;;;;;;20.46;38.48;100031.75;10456072;28;20397;-62
2023/09/09 04:51:57;;;;;;;14.18;2.67;;;;;;;19.95;38.46;100019.94;10455422;28;20041;-62
2023/09/09 04:56:57;;;;;;;17.98;3.00;;;;;;;20.12;38.28;100032.69;10454326;28;20519;-62
2023/09/09 05:01:58;;;;;;;49.92;4.03;;;;;;;20.16;38.14;100031.97;10454943;28;20131;-62
2023/09/09 05:07:00;;;;;;;100.43;7.30;;;;;;;20.17;37.92;100028.22;10454181;28;20489;-62
2023/09/09 05:12:01;;;;;;;14.95;2.30;;;;;;;20.22;37.72;100033.72;10451754;28;20024;-62
2023/09/09 05:17:01;;;;;;;15.55;2.17;;;;;;;19.94;37.80;100028.25;10454128;28;20052;-62
2023/09/09 05:22:02;;;;;;;16.08;1.92;;;;;;;19.42;38.77;100022.78;10453066;28;20037;-62
2023/09/09 05:27:03;;;;;;;42.05;3.50;;;;;;;19.05;38.88;100018.38;10454201;28;20057;-62
2023/09/09 05:32:04;;;;;;;58.92;2.88;;;;;;;18.95;39.70;100034.28;10454207;28;20037;-62
2023/09/09 05:37:05;;;;;;;24.02;2.17;;;;;;;18.94;38.71;100043.41;10453276;28;20049;-64
2023/09/09 05:42:06;;;;;;;39.45;2.58;;;;;;;18.95;38.73;100020.81;10454163;28;20045;-62
2023/09/09 05:47:08;;;;;;;31.88;1.92;;;;;;;18.77;38.55;99984.03;10454580;28;20155;-62
2023/09/09 05:52:08;;;;;;;75.55;3.63;;;;;;;18.96;38.35;100022.47;10453879;28;20044;-62
2023/09/09 05:57:09;;;;;;;61.10;3.95;;;;;;;18.65;38.74;99975.09;10453843;28;20411;-61
2023/09/09 06:02:10;;;;;;;51.25;3.78;;;;;;;18.97;38.77;100007.97;10453557;28;20033;-62
2023/09/09 06:07:11;;;;;;;137.77;8.23;;;;;;;18.87;39.00;99980.78;10453598;28;20041;-62
2023/09/09 06:18:03;;;;;;;101.35;5.40;;;;;;;20.10;38.13;100007.81;10873495;23;20071;-74
2023/09/09 06:23:04;;;;;;;49.80;5.00;;;;;;;20.30;36.34;99911.13;10319415;28;20066;-72
2023/09/09 06:28:05;;;;;;;41.63;6.53;;;;;;;21.58;35.05;99986.94;10328834;28;20524;-77
2023/09/09 06:33:06;;;;;;;6.05;1.30;;;;;;;21.96;33.05;99973.63;10332415;28;20049;-76
2023/09/09 06:38:07;;;;;;;12.43;2.75;;;;;;;21.92;32.36;99948.16;10325334;28;20073;-77
2023/09/09 06:43:07;;;;;;;10.15;1.48;;;;;;;22.48;31.74;99957.72;10335416;28;20068;-76
2023/09/09 06:48:08;;;;;;;10.70;1.42;;;;;;;22.79;31.42;99952.56;10336949;28;20035;-77
2023/09/09 06:53:09;;;;;;;28.17;2.20;;;;;;;23.01;30.87;99901.06;10337738;28;20137;-77
2023/09/09 06:58:10;;;;;;;6.15;1.30;;;;;;;23.50;30.20;99925.16;10335782;28;20053;-77
2023/09/09 07:03:11;;;;;;;26.00;2.10;;;;;;;23.63;30.29;99934.72;10336128;28;20034;-77
2023/09/09 07:24:10;;;;;;;11.55;3.42;;;;;;;25.03;31.74;99917.34;10457607;24;20073;-71
2023/09/09 07:29:10;;;;;;;8.90;3.40;;;;;;;24.86;30.89;99897.81;10028339;29;20062;-75
2023/09/09 07:34:11;;;;;;;7.55;2.78;;;;;;;24.85;30.58;99871.72;10022035;29;20042;-75
2023/09/09 07:39:13;;;;;;;22.42;4.15;;;;;;;24.87;30.57;99879.63;10022026;29;20046;-74
2023/09/09 07:44:14;;;;;;;30.42;4.22;;;;;;;25.08;31.04;99886.63;10022161;29;20038;-75
2023/09/09 07:49:14;;;;;;;19.45;3.35;;;;;;;25.24;30.31;99888.25;10026964;29;20057;-76
2023/09/09 07:54:15;;;;;;;5.30;2.88;;;;;;;25.16;29.60;99848.06;10059237;29;20045;-75
2023/09/09 07:59:16;;;;;;;12.52;2.90;;;;;;;25.36;29.53;99849.88;10060026;29;20116;-77
2023/09/09 08:04:17;;;;;;;29.98;3.65;;;;;;;25.81;30.27;99858.91;10059559;29;20048;-75
2023/09/09 08:09:17;;;;;;;11.30;4.25;;;;;;;25.91;29.98;99858.09;10058808;29;20045;-74
2023/09/09 08:14:18;;;;;;;7.10;2.80;;;;;;;25.80;29.03;99835.53;10059214;29;20041;-76
2023/09/09 08:19:20;;;;;;;16.10;3.67;;;;;;;26.46;29.12;99849.78;10057864;29;20049;-78
2023/09/09 08:24:21;;;;;;;13.50;3.03;;;;;;;26.16;29.25;99821.72;10026198;29;20133;-75
2023/09/09 08:29:22;;;;;;;13.25;3.40;;;;;;;25.69;29.95;99812.19;10020527;29;20145;-75
2023/09/09 08:34:23;;;;;;;11.43;3.40;;;;;;;25.93;30.60;99855.88;10020289;29;20081;-74
2023/09/09 08:39:24;;;;;;;5.82;2.60;;;;;;;25.87;30.16;99838.78;10019399;29;20046;-74
2023/09/09 08:44:31;;;;;;;11.70;2.67;;;;;;;26.34;30.40;99845.53;10019489;29;20049;-73
2023/09/09 08:49:35;;;;;;;5.38;2.80;;;;;;;26.54;29.45;99855.47;10019253;29;20506;-74
2023/09/09 08:54:36;;;;;;;18.88;3.08;;;;;;;26.45;29.23;99845.44;10018765;29;20038;-74
2023/09/09 08:59:39;;;;;;;29.42;3.58;;;;;;;26.84;28.10;99840.75;10018231;29;20049;-72
2023/09/09 09:04:40;;;;;;;;;;;;;;;27.26;28.09;99836.50;10019927;29;20443;-74
2023/09/09 09:09:41;;;;;;;15.52;1.90;;;;;;;26.79;27.78;99834.53;10033988;29;19924;-73
2023/09/09 09:14:46;;;;;;;39.95;3.58;;;;;;;26.21;27.68;99777.31;10019054;29;20505;-73
2023/09/09 09:19:47;;;;;;;16.98;2.42;;;;;;;26.52;27.68;99821.44;10018572;29;20041;-74
2023/09/09 09:24:47;;;;;;;23.98;4.93;;;;;;;26.25;28.25;99813.75;10018235;29;20061;-73
2023/09/09 09:29:48;;;;;;;7.78;2.22;;;;;;;26.07;28.69;99816.06;10018055;29;20053;-74
2023/09/09 09:34:50;;;;;;;6.05;2.30;;;;;;;25.91;28.27;99769.09;10018242;29;20042;-74
2023/09/09 09:39:52;;;;;;;13.05;2.75;;;;;;;26.70;27.53;99793.47;10019185;29;20046;-74
2023/09/09 09:45:08;;;;;;;21.98;2.20;;;;;;;26.92;27.04;99759.44;10018620;29;20049;-75
2023/09/09 09:50:18;;;;;;;16.65;2.20;;;;;;;26.97;26.34;99805.72;10017866;29;20067;-75
2023/09/09 09:55:19;;;;;;;24.50;3.40;;;;;;;26.51;26.91;99787.13;10018410;29;20053;-75
2023/09/09 10:00:21;;;;;;;17.65;2.90;;;;;;;26.47;27.00;99775.16;10017636;29;20498;-75
2023/09/09 10:05:24;;;;;;;20.52;3.20;;;;;;;26.46;26.62;99777.06;10018155;29;20492;-75
2023/09/09 10:10:25;;;;;;;;;;;;;;;26.91;26.52;99772.25;10023468;29;20042;-74
2023/09/09 10:15:27;;;;;;;12.27;2.20;;;;;;;27.13;25.84;99744.44;10025380;29;20073;-75
2023/09/09 10:20:29;;;;;;;9.70;2.03;;;;;;;27.34;25.70;99766.03;10024820;29;20526;-74
2023/09/09 10:25:31;;;;;;;15.35;2.30;;;;;;;27.25;26.04;99761.25;10025926;29;20097;-74
2023/09/09 10:30:34;;;;;;;13.15;2.38;;;;;;;27.12;25.33;99726.47;10024286;29;20049;-74
2023/09/09 10:35:37;;;;;;;12.88;2.63;;;;;;;27.07;25.46;99753.78;10024042;29;20495;-75
2023/09/09 10:40:39;;;;;;;29.80;3.30;;;;;;;27.06;26.17;99744.00;10024558;29;20446;-74
2023/09/09 10:45:42;;;;;;;21.15;3.10;;;;;;;26.38;26.32;99672.31;10024405;29;20046;-72
2023/09/09 10:50:51;;;;;;;10.52;2.10;;;;;;;26.94;25.72;99717.16;10023765;29;20053;-75
2023/09/09 10:56:00;;;;;;;9.20;2.60;;;;;;;26.45;25.67;99630.31;10022664;29;20045;-76
2023/09/09 11:16:33;;;;;;;32.50;4.65;;;;;;;26.21;25.97;99726.38;12137184;23;20019;-76
2023/09/09 11:21:37;;;;;;;11.57;1.98;;;;;;;25.62;26.69;99651.22;10054507;29;20117;-76
2023/09/09 11:26:40;;;;;;;17.17;1.90;;;;;;;25.80;25.94;99704.13;10059479;29;20045;-76
2023/09/09 11:31:40;;;;;;;16.85;1.80;;;;;;;25.74;25.86;99700.63;10053390;29;20077;-76
2023/09/09 11:36:43;;;;;;;23.35;2.28;;;;;;;25.60;26.06;99672.44;10051580;29;20148;-76
2023/09/09 11:41:44;;;;;;;16.27;2.30;;;;;;;25.80;25.97;99704.94;10056833;29;20065;-75
2023/09/09 11:46:47;;;;;;;25.52;3.47;;;;;;;25.61;26.04;99680.34;10059424;29;20448;-74
2023/09/09 11:51:47;;;;;;;18.98;2.53;;;;;;;25.34;26.17;99642.75;10060117;29;20045;-73
2023/09/09 11:56:48;;;;;;;24.25;2.60;;;;;;;25.20;26.10;99633.59;10059291;29;20125;-73
2023/09/09 12:01:51;;;;;;;14.40;3.20;;;;;;;25.38;26.09;99681.84;10058961;29;20068;-73
2023/09/09 12:06:52;;;;;;;27.80;3.57;;;;;;;25.38;26.19;99687.28;10058645;29;20045;-73
2023/09/09 12:11:53;;;;;;;31.10;3.75;;;;;;;25.33;25.72;99679.16;10058506;29;20041;-73
2023/09/09 12:16:54;;;;;;;45.72;4.28;;;;;;;25.26;25.56;99671.31;10057837;29;20251;-73
2023/09/09 12:21:55;;;;;;;37.67;4.75;;;;;;;25.06;25.50;99658.63;10059043;29;20057;-73
2023/09/09 12:26:56;;;;;;;34.60;2.83;;;;;;;24.94;25.47;99652.72;10071999;29;20429;-73
2023/09/09 12:31:58;;;;;;;17.75;2.50;;;;;;;24.90;25.43;99673.41;10058205;29;20140;-73
2023/09/09 12:36:59;;;;;;;21.60;3.45;;;;;;;24.99;25.21;99687.22;10057313;29;20087;-74
2023/09/09 12:42:01;;;;;;;16.75;2.22;;;;;;;24.65;25.68;99646.34;10056103;29;20041;-73
2023/09/09 12:47:05;;;;;;;26.73;2.58;;;;;;;24.18;26.19;99629.38;10057499;29;20421;-74
2023/09/09 12:52:05;;;;;;;24.85;3.25;;;;;;;24.43;26.33;99671.13;10058031;29;20045;-73
2023/09/09 12:57:06;;;;;;;16.05;3.03;;;;;;;24.48;26.15;99706.41;10056444;29;20498;-73
2023/09/09 13:02:07;;;;;;;46.47;25.83;;;;;;;24.21;26.41;99685.81;10054660;29;20053;-73
2023/09/09 13:07:08;;;;;;;58.67;11.15;;;;;;;24.10;26.33;99693.16;10054611;29;20540;-73
2023/09/09 13:12:09;;;;;;;18.27;3.50;;;;;;;23.74;26.45;99681.50;10058057;29;20074;-75
2023/09/09 13:17:09;;;;;;;32.53;10.77;;;;;;;23.43;26.94;99648.13;10056914;29;20066;-73
2023/09/09 13:22:10;;;;;;;36.67;4.15;;;;;;;23.53;26.93;99694.19;10056960;29;20049;-74
2023/09/09 13:27:11;;;;;;;23.13;3.53;;;;;;;23.28;26.92;99661.66;10056574;29;20070;-73
2023/09/09 13:32:11;;;;;;;27.85;4.50;;;;;;;23.24;26.68;99664.91;10047797;29;20052;-75
2023/09/09 13:37:12;;;;;;;28.75;2.92;;;;;;;23.42;26.70;99704.22;10053219;29;20046;-73
2023/09/09 13:42:13;;;;;;;20.13;3.50;;;;;;;23.42;26.99;99722.38;10058414;29;20101;-73
2023/09/09 13:47:14;;;;;;;22.88;3.65;;;;;;;23.42;26.71;99749.47;10064571;29;20069;-74
2023/09/09 13:52:14;;;;;;;39.40;4.70;;;;;;;23.38;26.70;99759.22;10064450;29;20053;-74
2023/09/09 13:57:15;;;;;;;18.00;3.55;;;;;;;23.29;27.36;99758.94;10063997;29;20053;-73
2023/09/09 14:02:16;;;;;;;23.55;6.05;;;;;;;23.21;27.55;99757.56;10063974;29;20041;-73
2023/09/09 14:07:17;;;;;;;50.33;8.85;;;;;;;23.10;28.40;99764.03;10064269;29;20045;-73
2023/09/09 14:12:17;;;;;;;97.35;14.85;;;;;;;22.64;28.42;99682.53;10063763;29;20064;-74
2023/09/09 14:17:18;;;;;;;187.13;15.48;;;;;;;22.91;28.97;99727.59;10062885;29;20065;-74
2023/09/09 14:22:19;;;;;;;38.80;6.40;;;;;;;22.72;28.77;99713.72;10063215;29;20052;-73
2023/09/09 14:27:20;;;;;;;26.48;3.25;;;;;;;22.20;28.72;99653.09;10062943;29;20499;-75
2023/09/09 14:32:20;;;;;;;31.20;2.83;;;;;;;22.50;28.61;99732.81;10063135;29;20069;-75
2023/09/09 14:37:21;;;;;;;52.72;4.07;;;;;;;22.34;28.72;99713.75;10062408;29;20056;-74
2023/09/09 14:42:22;;;;;;;26.35;2.63;;;;;;;22.39;29.17;99736.53;10062633;29;20045;-75
2023/09/09 14:47:23;;;;;;;81.72;6.85;;;;;;;22.20;29.98;99723.41;10053351;29;20046;-75
2023/09/09 14:52:24;;;;;;;21.35;2.42;;;;;;;22.31;29.67;99729.69;10056506;29;20045;-76
2023/09/09 14:57:24;;;;;;;59.08;4.88;;;;;;;22.24;30.48;99729.94;10055965;29;20049;-77
2023/09/09 15:02:25;;;;;;;32.85;4.35;;;;;;;22.17;30.19;99728.53;10075236;29;20056;-75
2023/09/09 15:07:26;;;;;;;19.67;2.42;;;;;;;22.27;30.29;99764.59;10058180;29;20051;-75
2023/09/09 15:12:27;;;;;;;5.30;1.67;;;;;;;22.01;30.64;99717.53;10054017;29;20042;-75
2023/09/09 15:17:27;;;;;;;18.35;2.83;;;;;;;22.14;30.84;99747.94;10061061;29;20114;-75
2023/09/09 15:22:28;;;;;;;15.55;3.95;;;;;;;22.05;30.90;99745.72;10054611;29;20513;-74
2023/09/09 15:27:29;;;;;;;22.25;3.47;;;;;;;22.00;30.78;99736.75;10053220;29;20101;-75
2023/09/09 15:32:34;;;;;;;99.68;7.60;;;;;;;21.88;31.40;99734.22;10048369;29;20049;-76
2023/09/09 15:37:35;;;;;;;14.60;2.70;;;;;;;21.76;31.22;99720.06;10054522;29;20429;-76
2023/09/09 15:42:36;;;;;;;25.58;2.90;;;;;;;21.75;31.19;99710.31;10049183;29;20049;-76
2023/09/09 15:47:37;;;;;;;93.55;6.65;;;;;;;21.65;32.15;99717.25;10057842;29;20057;-76
2023/09/09 15:52:37;;;;;;;56.15;5.13;;;;;;;21.60;32.91;99722.63;10059633;29;20044;-76
2023/09/09 15:57:38;;;;;;;35.67;3.28;;;;;;;21.52;32.49;99723.06;10051751;29;20106;-76
2023/09/09 16:02:39;;;;;;;32.40;4.03;;;;;;;21.42;32.73;99721.09;10059028;29;20045;-76
2023/09/09 16:07:41;;;;;;;22.83;3.20;;;;;;;21.31;33.42;99734.72;10050822;29;20042;-76
2023/09/09 16:12:42;;;;;;;24.10;3.25;;;;;;;21.19;33.84;99729.44;10046977;29;20148;-76
2023/09/09 16:17:44;;;;;;;20.83;2.63;;;;;;;21.09;33.99;99740.97;10045976;29;20537;-78
2023/09/09 16:22:44;;;;;;;24.98;3.20;;;;;;;21.09;34.61;99750.91;10050254;29;20179;-77
2023/09/09 16:27:47;;;;;;;110.13;8.27;;;;;;;20.89;36.45;99746.09;10052375;29;20049;-77
2023/09/09 16:32:47;;;;;;;23.40;3.45;;;;;;;20.71;37.17;99752.59;10055490;29;20046;-76
2023/09/09 16:37:48;;;;;;;77.00;7.72;;;;;;;20.54;37.22;99765.31;10056905;29;20053;-76
2023/09/09 16:42:49;;;;;;;45.47;11.32;;;;;;;20.23;37.75;99737.84;10058324;29;20494;-78
2023/09/09 16:47:50;;;;;;;42.75;14.75;;;;;;;20.17;38.02;99747.75;10058508;29;20045;-76
2023/09/09 16:52:51;;;;;;;55.42;9.82;;;;;;;20.08;38.19;99754.59;10057096;29;20105;-75
2023/09/09 16:57:51;;;;;;;56.90;8.07;;;;;;;19.78;37.97;99701.00;10057837;29;20078;-75
2023/09/09 17:02:52;;;;;;;38.28;7.10;;;;;;;20.07;39.17;99777.22;10056989;29;20489;-75
2023/09/09 17:07:53;;;;;;;24.88;4.53;;;;;;;19.90;38.86;99747.56;10049844;29;20046;-77
2023/09/09 17:12:54;;;;;;;24.25;3.42;;;;;;;19.62;38.82;99710.66;10047488;29;20070;-75
2023/09/09 17:17:54;;;;;;;18.08;3.28;;;;;;;20.07;38.48;99782.63;10055790;29;20065;-75
2023/09/09 17:22:55;;;;;;;12.95;3.22;;;;;;;20.01;37.96;99765.56;10056957;29;20042;-75
2023/09/09 17:27:56;;;;;;;17.92;3.33;;;;;;;19.89;38.68;99731.63;10057419;29;20071;-75
2023/09/09 17:32:58;;;;;;;20.10;3.47;;;;;;;20.08;38.30;99748.41;10056492;29;20056;-75
2023/09/09 17:37:59;;;;;;;8.10;3.03;;;;;;;20.14;38.38;99763.59;10056259;29;20045;-79
2023/09/09 17:43:00;;;;;;;12.85;3.30;;;;;;;19.76;39.58;99719.28;10056272;29;20051;-82
2023/09/09 17:48:01;;;;;;;14.85;3.17;;;;;;;19.68;40.30;99712.41;10056234;29;20418;-81
2023/09/09 17:53:01;;;;;;;15.15;3.25;;;;;;;19.70;40.22;99718.38;10055859;29;20550;-82
2023/09/09 17:58:02;;;;;;;17.17;3.22;;;;;;;19.58;41.09;99706.81;10070090;29;20493;-79
2023/09/09 18:03:03;;;;;;;17.55;3.10;;;;;;;19.78;41.82;99744.94;10055341;29;20041;-81
2023/09/09 18:08:04;;;;;;;19.42;3.10;;;;;;;19.72;42.56;99759.38;10056258;29;20053;-77
2023/09/09 18:13:05;;;;;;;13.98;2.80;;;;;;;19.62;42.25;99737.59;10055900;29;20466;-81
2023/09/09 18:18:06;;;;;;;25.00;3.15;;;;;;;19.28;42.03;99677.47;10055651;29;20065;-84
2023/09/09 18:23:07;;;;;;;29.38;3.60;;;;;;;19.41;43.32;99714.88;10056582;29;20045;-79
2023/09/09 18:28:07;;;;;;;21.90;3.47;;;;;;;19.22;43.14;99681.94;10055568;29;20073;-75
2023/09/09 18:33:11;;;;;;;22.55;3.08;;;;;;;19.53;42.67;99742.59;10062271;29;20072;-78
2023/09/09 18:38:11;;;;;;;17.00;2.90;;;;;;;19.60;42.50;99754.03;10062533;29;20053;-76
2023/09/09 18:43:12;;;;;;;12.05;2.70;;;;;;;19.54;42.63;99736.13;10062247;29;20072;-75
2023/09/09 18:48:15;;;;;;;14.80;2.50;;;;;;;19.44;42.40;99724.34;10061433;29;20049;-77
2023/09/09 18:53:16;;;;;;;12.55;3.28;;;;;;;19.41;42.58;99717.56;10061418;29;20041;-80
2023/09/09 18:58:17;;;;;;;18.95;3.30;;;;;;;19.06;42.95;99678.16;10061657;29;20046;-80
2023/09/09 19:03:19;;;;;;;11.00;2.67;;;;;;;19.34;41.77;99722.28;10061814;29;20076;-81
2023/09/09 19:08:19;;;;;;;50.22;3.75;;;;;;;19.44;41.92;99729.72;10060842;29;20402;-80
2023/09/09 19:13:20;;;;;;;78.50;6.40;;;;;;;18.75;44.27;99689.34;10060876;29;20056;-80
2023/09/09 19:18:21;;;;;;;126.78;6.97;;;;;;;18.85;45.76;99754.16;10061422;29;20437;-80
2023/09/09 19:23:22;;;;;;;87.03;6.50;;;;;;;18.50;46.30;99724.56;10059603;29;20049;-81
2023/09/09 19:28:22;;;;;;;162.75;11.20;;;;;;;18.36;46.06;99721.28;10059634;29;20053;-76
2023/09/09 19:33:23;;;;;;;112.25;7.25;;;;;;;18.28;46.92;99756.59;10060876;29;20041;-79
2023/09/09 19:38:24;;;;;;;276.27;17.02;;;;;;;17.98;48.46;99790.56;10060254;29;20053;-79
2023/09/09 19:43:24;;;;;;;142.60;9.23;;;;;;;17.84;49.41;99791.00;10074617;29;20070;-80
2023/09/09 19:48:25;;;;;;;98.70;5.25;;;;;;;17.58;50.60;99801.00;10060379;29;20059;-79
2023/09/09 19:53:26;;;;;;;56.22;4.00;;;;;;;17.34;51.65;99800.91;10059507;29;20045;-78
2023/09/09 19:58:27;;;;;;;58.88;5.20;;;;;;;17.08;53.22;99828.88;10059320;29;20049;-79
2023/09/09 20:03:28;;;;;;;60.38;4.53;;;;;;;16.49;54.42;99805.31;10059973;29;20049;-78
2023/09/09 20:08:30;;;;;;;25.27;2.90;;;;;;;16.77;55.19;99886.13;10059608;29;20131;-79
2023/09/09 20:13:31;;;;;;;18.20;2.70;;;;;;;16.44;56.21;99825.53;10059258;29;20180;-79
2023/09/09 20:18:31;;;;;;;24.55;2.40;;;;;;;16.36;56.62;99860.66;10058406;29;20433;-80
2023/09/09 20:23:32;;;;;;;19.20;2.40;;;;;;;16.35;57.55;99896.53;10059255;29;20061;-78
2023/09/09 20:28:33;;;;;;;6.97;1.75;;;;;;;16.05;58.20;99885.59;10059132;29;20406;-76
2023/09/09 20:33:35;;;;;;;8.05;1.63;;;;;;;16.08;59.75;99956.69;10058172;29;20581;-77
2023/09/09 20:38:35;;;;;;;11.60;1.65;;;;;;;15.61;60.66;99919.34;10058230;29;20120;-76
2023/09/09 20:43:36;;;;;;;15.13;1.60;;;;;;;15.57;62.80;99966.31;10058546;29;20045;-77
2023/09/09 20:48:37;;;;;;;9.95;2.00;;;;;;;15.33;65.06;99977.69;10057563;29;20386;-77
2023/09/09 20:53:38;;;;;;;11.10;2.05;;;;;;;15.07;67.73;99988.19;10057999;29;20045;-76
2023/09/09 20:58:39;;;;;;;6.68;1.25;;;;;;;13.96;70.39;99898.75;10057004;29;20053;-79
